Time;durP1;ratioP1;P1;durP2;ratioP2;P2;SDS_P1;SDS_P2;PMS_P1;PMS_P2;Temp;Humidity;BMP_temperature;BMP_pressure;BME280_temperature;BME280_humidity;BME280_pressure;Samples;Min_cycle;Max_cycle;Signal;HPM_P1;HPM_P2
2022/01/07 00:01:19;;;;;;;17.83;8.05;;;3.70;99.90;;;;;;5006555;27;20406;-86
2022/01/07 00:03:44;;;;;;;20.88;7.65;;;3.70;99.90;;;;;;4980552;27;20858;-89
2022/01/07 00:06:13;;;;;;;23.27;7.75;;;3.70;99.90;;;;;;5027627;27;20046;-88
2022/01/07 00:08:39;;;;;;;17.33;7.22;;;3.70;99.90;;;;;;4993137;27;20670;-87
2022/01/07 00:11:05;;;;;;;18.10;7.00;;;3.70;99.90;;;;;;5009357;27;20550;-85
2022/01/07 00:13:31;;;;;;;18.02;6.93;;;3.80;99.90;;;;;;5011322;27;21033;-88
2022/01/07 00:15:57;;;;;;;20.33;7.65;;;3.80;99.90;;;;;;5034958;27;20079;-88
2022/01/07 00:18:23;;;;;;;20.67;8.15;;;3.80;99.90;;;;;;5011763;28;20997;-89
2022/01/07 00:20:56;;;;;;;17.45;7.18;;;3.80;99.90;;;;;;5016723;27;20689;-91
2022/01/07 00:23:22;;;;;;;19.25;7.20;;;3.90;99.90;;;;;;5016353;27;20068;-86
2022/01/07 00:25:48;;;;;;;20.17;7.22;;;3.70;99.90;;;;;;4982724;27;20039;-93
2022/01/07 00:28:17;;;;;;;19.83;7.28;;;3.80;99.90;;;;;;5002450;27;20047;-91
2022/01/07 00:30:43;;;;;;;16.90;7.30;;;3.80;99.90;;;;;;5020803;27;20219;-89
2022/01/07 00:33:10;;;;;;;18.95;7.13;;;3.80;99.90;;;;;;5008758;27;20047;-89
2022/01/07 00:35:36;;;;;;;15.52;6.82;;;3.80;99.90;;;;;;4989834;27;20057;-86
2022/01/07 00:38:03;;;;;;;18.88;7.18;;;3.80;99.90;;;;;;4993456;27;20813;-88
2022/01/07 00:40:36;;;;;;;17.92;7.50;;;3.70;99.90;;;;;;4992814;27;20496;-92
2022/01/07 00:43:03;;;;;;;14.82;6.93;;;3.70;99.90;;;;;;5031886;27;20528;-90
2022/01/07 00:45:32;;;;;;;18.05;7.20;;;3.70;99.90;;;;;;5027476;27;20051;-93
2022/01/07 00:47:58;;;;;;;15.05;6.57;;;3.80;99.90;;;;;;4999624;27;20043;-88
2022/01/07 00:50:27;;;;;;;16.75;7.15;;;3.70;99.90;;;;;;5013561;27;20760;-92
2022/01/07 00:52:59;;;;;;;19.65;7.47;;;3.70;99.90;;;;;;5009958;27;20043;-90
2022/01/07 00:55:28;;;;;;;16.10;6.70;;;3.60;99.90;;;;;;5012443;27;20442;-92
2022/01/07 00:57:57;;;;;;;15.82;6.95;;;3.60;99.90;;;;;;5007380;27;20052;-93
2022/01/07 01:00:27;;;;;;;17.45;6.72;;;3.60;99.90;;;;;;5016305;27;20271;-91
2022/01/07 01:02:55;;;;;;;19.10;7.13;;;3.70;99.90;;;;;;5021348;27;20126;-93
2022/01/07 01:05:21;;;;;;;20.98;7.13;;;3.70;99.90;;;;;;5000979;27;20813;-89
2022/01/07 01:08:01;;;;;;;15.73;6.78;;;3.60;99.90;;;;;;5009214;27;20670;-94
2022/01/07 01:10:35;;;;;;;19.75;7.85;;;3.70;99.90;;;;;;4996141;27;20128;-86
2022/01/07 01:13:04;;;;;;;18.05;7.00;;;3.60;99.90;;;;;;5019242;27;20756;-92
2022/01/07 01:15:38;;;;;;;15.55;7.60;;;3.60;99.90;;;;;;5001571;27;20548;-91
2022/01/07 01:18:04;;;;;;;16.42;7.13;;;3.60;99.90;;;;;;4983893;27;20297;-89
2022/01/07 01:20:32;;;;;;;18.00;7.22;;;3.60;99.90;;;;;;4992736;27;20246;-88
2022/01/07 01:22:59;;;;;;;17.17;7.40;;;3.50;99.90;;;;;;5004900;27;20852;-92
2022/01/07 01:25:25;;;;;;;18.10;7.28;;;3.40;99.90;;;;;;5020958;27;20044;-88
2022/01/07 01:27:51;;;;;;;19.40;7.20;;;3.50;99.90;;;;;;5003852;27;20397;-88
2022/01/07 01:30:20;;;;;;;17.08;7.40;;;3.40;99.90;;;;;;4991095;27;20040;-89
2022/01/07 01:32:48;;;;;;;17.48;7.60;;;3.40;99.90;;;;;;5011894;27;20043;-87
2022/01/07 01:35:19;;;;;;;18.85;7.53;;;3.30;99.90;;;;;;4998055;27;20493;-95
2022/01/07 01:37:49;;;;;;;16.45;7.65;;;3.30;99.90;;;;;;5019087;28;20735;-87
2022/01/07 01:40:16;;;;;;;20.45;8.63;;;3.30;99.90;;;;;;5011837;27;20375;-93
2022/01/07 01:43:01;;;;;;;20.42;8.60;;;3.20;99.90;;;;;;5007170;27;20480;-90
2022/01/07 01:45:28;;;;;;;16.75;8.82;;;3.20;99.90;;;;;;5000679;27;20039;-92
2022/01/07 01:47:57;;;;;;;17.65;8.38;;;3.30;99.90;;;;;;5031567;27;20071;-88
2022/01/07 01:50:28;;;;;;;18.70;8.27;;;3.20;99.90;;;;;;5022906;27;20039;-94
2022/01/07 01:53:05;;;;;;;22.92;9.15;;;3.20;99.90;;;;;;4998941;27;20506;-90
2022/01/07 01:55:43;;;;;;;17.70;8.60;;;3.10;99.90;;;;;;5030332;27;20055;-91
2022/01/07 01:58:11;;;;;;;19.50;9.75;;;3.10;99.90;;;;;;5035827;27;20181;-90
2022/01/07 02:00:38;;;;;;;20.27;9.25;;;3.10;99.90;;;;;;5006796;27;20348;-88
2022/01/07 02:03:05;;;;;;;21.02;9.75;;;3.00;99.90;;;;;;4999966;27;20356;-93
2022/01/07 02:05:34;;;;;;;18.55;8.98;;;3.00;99.90;;;;;;5020419;27;20298;-91
2022/01/07 02:08:00;;;;;;;23.50;10.57;;;3.00;99.90;;;;;;5013215;27;20066;-90
2022/01/07 02:10:26;;;;;;;25.63;10.15;;;3.00;99.90;;;;;;5008453;27;20036;-88
2022/01/07 02:12:52;;;;;;;25.20;10.75;;;2.90;99.90;;;;;;5018229;27;20239;-90
2022/01/07 02:15:33;;;;;;;22.90;11.25;;;3.00;99.90;;;;;;5012917;27;20539;-95
2022/01/07 02:18:19;;;;;;;23.70;12.23;;;3.00;99.90;;;;;;5018225;27;20107;-93
2022/01/07 02:20:48;;;;;;;29.40;12.15;;;3.00;99.90;;;;;;5022648;27;20109;-88
2022/01/07 02:23:25;;;;;;;23.92;12.70;;;3.00;99.90;;;;;;5009723;27;20051;-92
2022/01/07 02:25:52;;;;;;;24.38;12.60;;;3.00;99.90;;;;;;5012515;27;20047;-90
2022/01/07 02:28:33;;;;;;;27.90;12.63;;;3.00;99.90;;;;;;5027280;27;20208;-95
2022/01/07 02:31:18;;;;;;;25.67;12.05;;;3.00;99.90;;;;;;5040165;27;20070;-95
2022/01/07 02:33:44;;;;;;;20.67;11.90;;;3.00;99.90;;;;;;5016732;27;20232;-93
2022/01/07 02:36:22;;;;;;;26.60;13.77;;;3.00;99.90;;;;;;5013676;27;20035;-92
2022/01/07 02:39:03;;;;;;;25.23;13.18;;;3.00;99.90;;;;;;5042101;27;20060;-87
2022/01/07 02:41:35;;;;;;;24.73;13.48;;;3.00;99.90;;;;;;5005420;27;20047;-94
2022/01/07 02:44:04;;;;;;;28.85;14.30;;;2.90;99.90;;;;;;5033307;28;20453;-92
2022/01/07 02:46:30;;;;;;;26.80;13.95;;;2.90;99.90;;;;;;5020878;27;20075;-94
2022/01/07 02:48:57;;;;;;;26.45;15.80;;;2.90;99.90;;;;;;5009136;28;20043;-91
2022/01/07 02:51:42;;;;;;;30.05;14.82;;;2.90;99.90;;;;;;5009652;27;20887;-96
2022/01/07 02:54:11;;;;;;;25.45;13.93;;;2.90;99.90;;;;;;5004005;27;20115;-95
2022/01/07 02:56:55;;;;;;;31.23;15.18;;;2.90;99.90;;;;;;5030011;27;20043;-96
2022/01/07 02:59:30;;;;;;;27.02;14.50;;;2.80;99.90;;;;;;5027370;28;20039;-96
2022/01/07 03:01:56;;;;;;;25.40;15.35;;;2.90;99.90;;;;;;5010726;27;20043;-92
2022/01/07 03:04:27;;;;;;;26.85;16.38;;;2.90;99.90;;;;;;5032255;28;20257;-96
2022/01/07 03:07:04;;;;;;;28.98;15.55;;;2.90;99.90;;;;;;5008627;28;20409;-92
2022/01/07 03:09:33;;;;;;;28.80;15.25;;;2.80;99.90;;;;;;5027876;28;20322;-94
2022/01/07 03:12:02;;;;;;;23.83;14.88;;;2.80;99.90;;;;;;5030074;28;20060;-92
2022/01/07 03:14:34;;;;;;;27.70;17.38;;;2.80;99.90;;;;;;5012029;28;20055;-96
2022/01/07 03:17:15;;;;;;;26.48;16.05;;;2.80;99.90;;;;;;5022821;28;20052;-96
2022/01/07 03:19:43;;;;;;;24.08;15.80;;;2.80;99.90;;;;;;5035786;28;20039;-95
2022/01/07 03:22:50;;;;;;;25.00;15.48;;;2.80;99.90;;;;;;5029611;28;20039;-96
2022/01/07 03:25:19;;;;;;;29.10;16.48;;;2.80;99.90;;;;;;4960452;28;20135;-93
2022/01/07 03:31:33;;;;;;;23.40;15.38;;;2.80;99.90;;;;;;5006213;28;20460;-96
2022/01/07 03:34:06;;;;;;;27.05;16.35;;;2.80;99.90;;;;;;4964346;28;20379;-94
2022/01/07 03:36:50;;;;;;;27.02;15.65;;;2.80;99.90;;;;;;4938521;28;20351;-89
2022/01/07 03:39:25;;;;;;;26.33;16.10;;;2.80;99.90;;;;;;4957532;28;20096;-95
2022/01/07 03:41:51;;;;;;;26.70;15.95;;;2.90;99.90;;;;;;4940122;28;20099;-95
2022/01/07 03:47:45;;;;;;;25.95;16.83;;;2.80;99.90;;;;;;5014052;28;20055;-91
2022/01/07 03:50:15;;;;;;;24.52;16.20;;;2.90;99.90;;;;;;5039289;28;20130;-94
2022/01/07 03:52:49;;;;;;;26.70;15.57;;;2.90;99.90;;;;;;5032757;28;20050;-96
2022/01/07 03:55:21;;;;;;;23.73;16.02;;;2.90;99.90;;;;;;5038468;28;20243;-96
2022/01/07 04:00:50;;;;;;;23.23;15.07;;;3.00;99.90;;;;;;5019183;28;20047;-92
2022/01/07 04:03:25;;;;;;;25.52;15.80;;;3.00;99.90;;;;;;5031753;28;20071;-94
2022/01/07 04:06:05;;;;;;;25.65;16.52;;;3.00;99.90;;;;;;5015217;28;20047;-96
2022/01/07 04:08:41;;;;;;;;;;;;;;;;;;;;;
2022/01/07 04:11:07;;;;;;;25.60;16.45;;;3.10;99.90;;;;;;5016033;28;20056;-90
2022/01/07 04:13:33;;;;;;;26.60;15.23;;;3.10;99.90;;;;;;5018613;28;20058;-90
2022/01/07 04:15:58;;;;;;;24.77;16.05;;;3.10;99.90;;;;;;5015282;28;20528;-90
2022/01/07 04:18:24;;;;;;;28.63;16.35;;;3.10;99.90;;;;;;5004236;28;20072;-89
2022/01/07 04:20:53;;;;;;;24.58;14.73;;;3.20;99.90;;;;;;5009618;28;20119;-88
2022/01/07 04:23:18;;;;;;;26.95;14.80;;;3.10;99.90;;;;;;5014608;28;20040;-91
2022/01/07 04:25:47;;;;;;;21.25;13.85;;;3.10;99.90;;;;;;5007809;28;20390;-96
2022/01/07 04:28:13;;;;;;;21.50;14.63;;;3.10;99.90;;;;;;5021058;28;20142;-91
2022/01/07 04:30:47;;;;;;;24.02;14.38;;;3.20;99.90;;;;;;5035522;28;20062;-95
2022/01/07 04:33:22;;;;;;;;;;;3.20;99.90;;;;;;5026770;27;20432;-96
2022/01/07 04:35:48;;;;;;;22.83;13.32;;;3.20;99.90;;;;;;5046851;27;20292;-89
2022/01/07 04:38:15;;;;;;;24.50;13.73;;;3.20;99.90;;;;;;5015332;27;20051;-91
2022/01/07 04:40:40;;;;;;;24.58;14.30;;;3.20;99.90;;;;;;5014818;27;20485;-92
2022/01/07 04:43:07;;;;;;;19.58;13.23;;;3.20;99.90;;;;;;5011195;27;20050;-93
2022/01/07 04:45:37;;;;;;;21.45;12.88;;;3.20;99.90;;;;;;5013056;27;20051;-91
2022/01/07 04:48:09;;;;;;;22.70;12.63;;;3.20;99.90;;;;;;5030917;27;20501;-94
2022/01/07 04:50:44;;;;;;;24.17;13.23;;;3.20;99.90;;;;;;5019662;27;20380;-91
2022/01/07 04:53:40;;;;;;;21.63;12.30;;;3.10;99.90;;;;;;5017777;27;20060;-92
2022/01/07 04:56:06;;;;;;;17.95;12.48;;;3.20;99.90;;;;;;5008360;27;20110;-91
2022/01/07 04:58:32;;;;;;;22.02;12.90;;;3.10;99.90;;;;;;5026779;27;20043;-90
2022/01/07 05:01:01;;;;;;;22.98;13.05;;;3.10;99.90;;;;;;5019280;27;20039;-96
2022/01/07 05:03:42;;;;;;;21.58;12.98;;;3.10;99.90;;;;;;5033986;27;20058;-93
2022/01/07 05:06:44;;;;;;;17.25;12.52;;;3.10;99.90;;;;;;5033925;27;20342;-93
2022/01/07 05:09:04;;;;;;;;;;;3.10;99.90;;;;;;5040499;28;21035;-96
2022/01/07 05:11:50;;;;;;;22.05;12.35;;;3.10;99.90;;;;;;5035347;27;19924;-96
2022/01/07 05:14:25;;;;;;;18.52;11.30;;;3.10;99.90;;;;;;5043968;27;20048;-95
2022/01/07 05:16:56;;;;;;;22.15;11.93;;;3.10;99.90;;;;;;5030025;27;20050;-95
2022/01/07 05:19:24;;;;;;;;;;;3.10;99.90;;;;;;5028427;27;20309;-95
2022/01/07 05:21:56;;;;;;;19.63;12.40;;;3.10;99.90;;;;;;5031705;27;20148;-94
2022/01/07 05:24:23;;;;;;;17.35;11.93;;;3.10;99.90;;;;;;5029572;27;20103;-92
2022/01/07 05:26:52;;;;;;;19.83;12.30;;;3.10;99.90;;;;;;5038348;27;20042;-94
2022/01/07 05:29:18;;;;;;;21.88;12.70;;;3.10;99.90;;;;;;5045891;27;20040;-93
2022/01/07 05:31:50;;;;;;;20.23;11.95;;;3.10;99.90;;;;;;5037599;27;20548;-95
2022/01/07 05:34:21;;;;;;;22.80;12.27;;;3.10;99.90;;;;;;5028354;27;20531;-93
2022/01/07 05:37:11;;;;;;;17.95;11.75;;;3.10;99.90;;;;;;5034208;27;20058;-96
2022/01/07 05:40:04;;;;;;;19.10;11.77;;;3.10;99.90;;;;;;5038879;27;20875;-96
2022/01/07 05:42:32;;;;;;;17.13;11.13;;;3.10;99.90;;;;;;5058139;27;20047;-94
2022/01/07 05:45:05;;;;;;;20.58;11.65;;;3.10;99.90;;;;;;5013196;27;20555;-96
2022/01/07 05:47:32;;;;;;;17.40;12.02;;;3.10;99.90;;;;;;5037667;27;20081;-95
2022/01/07 05:50:15;;;;;;;18.00;10.93;;;3.10;99.90;;;;;;5037398;27;20070;-96
2022/01/07 05:52:48;;;;;;;17.65;11.02;;;3.10;99.90;;;;;;5033202;27;20036;-93
2022/01/07 05:55:14;;;;;;;18.65;11.25;;;3.10;99.90;;;;;;5032994;27;20616;-92
2022/01/07 05:57:49;;;;;;;15.73;11.68;;;3.10;99.90;;;;;;5017174;27;20553;-93
2022/01/07 06:00:18;;;;;;;15.70;11.20;;;3.10;99.90;;;;;;5033213;27;20051;-94
2022/01/07 06:02:47;;;;;;;18.40;11.45;;;3.10;99.90;;;;;;5014830;27;20043;-92
2022/01/07 06:05:15;;;;;;;17.08;11.23;;;3.10;99.90;;;;;;5030988;27;20474;-93
2022/01/07 06:07:44;;;;;;;18.95;11.50;;;3.20;99.90;;;;;;5031455;27;20043;-95
2022/01/07 06:10:28;;;;;;;;;;;;;;;;;;;;;
2022/01/07 06:13:17;;;;;;;19.70;11.55;;;3.20;99.90;;;;;;5043186;27;20063;-90
2022/01/07 06:15:44;;;;;;;17.90;10.93;;;3.30;99.90;;;;;;5011728;27;20052;-92
2022/01/07 06:18:12;;;;;;;17.85;11.20;;;3.20;99.90;;;;;;5002335;27;20941;-91
2022/01/07 06:20:38;;;;;;;17.92;10.85;;;3.20;99.90;;;;;;5006252;27;20070;-91
2022/01/07 06:23:04;;;;;;;18.02;11.63;;;3.30;99.90;;;;;;5028498;27;20514;-92
2022/01/07 06:25:32;;;;;;;17.17;9.95;;;3.40;99.90;;;;;;5010348;27;20470;-93
2022/01/07 06:27:58;;;;;;;17.42;11.02;;;3.30;99.90;;;;;;5015229;27;20262;-90
2022/01/07 06:30:24;;;;;;;15.60;10.70;;;3.30;99.90;;;;;;5006474;27;20036;-89
2022/01/07 06:32:50;;;;;;;18.45;10.40;;;3.30;99.90;;;;;;5010671;27;20040;-91
2022/01/07 06:35:22;;;;;;;14.73;10.30;;;3.40;99.90;;;;;;4988832;27;20047;-95
2022/01/07 06:37:50;;;;;;;15.10;10.18;;;3.30;99.90;;;;;;5025225;27;20420;-91
2022/01/07 06:40:21;;;;;;;16.27;10.43;;;3.40;99.90;;;;;;5019723;27;20059;-93
2022/01/07 06:42:50;;;;;;;16.35;11.02;;;3.40;99.90;;;;;;5019358;27;20075;-91
2022/01/07 06:45:27;;;;;;;15.00;10.23;;;3.40;99.90;;;;;;5010171;28;20039;-90
2022/01/07 06:47:52;;;;;;;17.98;11.10;;;3.40;99.90;;;;;;5016699;27;20058;-90
2022/01/07 06:50:18;;;;;;;15.13;11.10;;;3.40;99.90;;;;;;5000078;28;20885;-96
2022/01/07 06:53:05;;;;;;;16.33;10.90;;;3.40;99.90;;;;;;5002671;27;20504;-92
2022/01/07 06:55:33;;;;;;;14.43;10.93;;;3.40;99.90;;;;;;5038417;27;20408;-91
2022/01/07 06:57:59;;;;;;;17.55;12.48;;;3.50;99.90;;;;;;5016781;27;20567;-91
2022/01/07 07:00:25;;;;;;;15.80;10.82;;;3.60;99.90;;;;;;5011820;27;20865;-92
2022/01/07 07:02:57;;;;;;;14.32;11.13;;;3.50;99.90;;;;;;5004950;27;20039;-96
2022/01/07 07:05:24;;;;;;;14.25;11.05;;;3.50;99.90;;;;;;4995352;28;20070;-90
2022/01/07 07:07:51;;;;;;;15.20;10.73;;;3.50;99.90;;;;;;4994334;27;20036;-89
2022/01/07 07:10:19;;;;;;;19.80;12.05;;;3.40;99.90;;;;;;5012271;27;20051;-90
2022/01/07 07:12:45;;;;;;;18.35;11.98;;;3.50;99.90;;;;;;4998794;28;20210;-91
2022/01/07 07:15:20;;;;;;;15.65;12.07;;;3.40;99.90;;;;;;5004386;28;20101;-92
2022/01/07 07:17:54;;;;;;;15.32;11.88;;;3.50;99.90;;;;;;5003817;28;20536;-93
2022/01/07 07:20:26;;;;;;;17.55;11.95;;;3.40;99.90;;;;;;5007268;28;20048;-91
2022/01/07 07:22:52;;;;;;;18.55;12.73;;;3.40;99.90;;;;;;5001229;28;20048;-87
2022/01/07 07:25:18;;;;;;;16.83;12.52;;;3.40;99.90;;;;;;4985182;28;20052;-92
2022/01/07 07:27:47;;;;;;;18.73;13.23;;;3.40;99.90;;;;;;4988468;28;20537;-88
2022/01/07 07:30:13;;;;;;;17.08;13.02;;;3.50;99.90;;;;;;5006540;28;20045;-91
2022/01/07 07:32:39;;;;;;;20.45;14.60;;;3.40;99.90;;;;;;4999208;28;20163;-93
2022/01/07 07:38:29;;;;;;;20.45;14.30;;;3.60;99.90;;;;;;4967748;28;20059;-93
2022/01/07 07:40:58;;;;;;;20.20;14.80;;;3.60;99.90;;;;;;5006176;28;20056;-92
2022/01/07 07:43:24;;;;;;;20.38;14.80;;;3.50;99.90;;;;;;4965460;28;20647;-91
2022/01/07 07:45:49;;;;;;;20.88;14.43;;;3.60;99.90;;;;;;4994170;28;20044;-87
2022/01/07 07:48:19;;;;;;;22.25;15.27;;;3.60;99.90;;;;;;4990485;28;20072;-94
2022/01/07 07:50:47;;;;;;;24.65;15.35;;;3.60;99.90;;;;;;4995595;28;20297;-92
2022/01/07 07:53:13;;;;;;;21.00;15.65;;;3.60;99.90;;;;;;4989715;28;20058;-90
2022/01/07 07:55:41;;;;;;;23.73;15.95;;;3.60;99.90;;;;;;4983908;28;20041;-94
2022/01/07 07:58:13;;;;;;;24.08;16.30;;;3.60;99.90;;;;;;4994352;28;20445;-93
2022/01/07 08:00:42;;;;;;;25.83;17.02;;;3.70;99.90;;;;;;4992677;28;20789;-90
2022/01/07 08:03:07;;;;;;;23.77;16.75;;;3.70;99.90;;;;;;4988729;28;20048;-92
2022/01/07 08:05:33;;;;;;;25.33;17.23;;;3.70;99.90;;;;;;4983791;28;20079;-92
2022/01/07 08:08:02;;;;;;;27.92;18.50;;;3.70;99.90;;;;;;5005809;28;20583;-90
2022/01/07 08:10:33;;;;;;;28.83;18.33;;;3.80;99.90;;;;;;4994113;28;20127;-91
2022/01/07 08:15:58;;;;;;;25.88;19.20;;;3.90;99.90;;;;;;5019443;27;20047;-89
2022/01/07 08:18:31;;;;;;;24.73;17.65;;;3.80;99.90;;;;;;5010817;27;20066;-92
2022/01/07 08:21:01;;;;;;;26.40;19.85;;;3.90;99.90;;;;;;5041941;27;20043;-92
2022/01/07 08:23:30;;;;;;;31.20;21.25;;;3.90;99.90;;;;;;5016694;27;20672;-91
2022/01/07 08:25:56;;;;;;;26.30;19.75;;;4.00;99.90;;;;;;5006706;27;20816;-90
2022/01/07 08:28:28;;;;;;;29.00;19.67;;;4.00;99.90;;;;;;5025195;27;20102;-89
2022/01/07 08:31:11;;;;;;;28.63;19.98;;;4.10;99.90;;;;;;5007599;27;20047;-94
2022/01/07 08:36:30;;;;;;;31.60;21.17;;;4.20;99.90;;;;;;5029513;27;20039;-90
2022/01/07 08:39:05;;;;;;;31.58;21.80;;;4.20;99.90;;;;;;5019228;27;20579;-91
2022/01/07 08:41:32;;;;;;;28.20;21.30;;;4.30;99.90;;;;;;5017863;27;20492;-89
2022/01/07 08:44:02;;;;;;;31.33;20.75;;;4.20;99.90;;;;;;5015147;27;20039;-91
2022/01/07 08:46:29;;;;;;;30.83;22.15;;;4.30;99.90;;;;;;5016089;27;20050;-86
2022/01/07 08:48:57;;;;;;;34.45;22.33;;;4.30;99.90;;;;;;5015105;27;20460;-89
2022/01/07 08:51:23;;;;;;;31.13;22.80;;;4.30;99.90;;;;;;5009936;27;20699;-90
2022/01/07 08:53:50;;;;;;;32.20;23.08;;;4.50;99.90;;;;;;4995986;27;20051;-89
2022/01/07 08:56:26;;;;;;;31.98;23.95;;;4.40;99.90;;;;;;5014395;27;20467;-90
2022/01/07 08:58:53;;;;;;;30.65;23.17;;;4.50;99.90;;;;;;5002092;27;20598;-90
2022/01/07 09:01:29;;;;;;;34.33;23.48;;;4.50;99.90;;;;;;5011469;27;20907;-91
2022/01/07 09:03:58;;;;;;;31.38;23.73;;;4.50;99.90;;;;;;5000432;27;20637;-89
2022/01/07 09:06:24;;;;;;;32.72;24.00;;;4.60;99.90;;;;;;4994551;27;20039;-88
2022/01/07 09:08:50;;;;;;;35.60;24.52;;;4.70;99.90;;;;;;5023190;27;22013;-88
2022/01/07 09:11:19;;;;;;;34.38;24.23;;;4.60;99.90;;;;;;5006075;27;20066;-92
2022/01/07 09:13:53;;;;;;;35.42;24.63;;;4.70;99.90;;;;;;5019825;27;20108;-91
2022/01/07 09:16:23;;;;;;;37.55;25.35;;;4.70;99.90;;;;;;5007665;27;20039;-90
2022/01/07 09:18:55;;;;;;;34.38;25.40;;;4.80;99.90;;;;;;5021698;27;20085;-96
2022/01/07 09:21:23;;;;;;;31.60;24.27;;;4.80;99.90;;;;;;5033988;27;20046;-92
2022/01/07 09:23:53;;;;;;;35.92;25.08;;;4.80;99.90;;;;;;5016936;27;20388;-90
2022/01/07 09:26:29;;;;;;;;;;;;;;;;;;;;;
2022/01/07 09:28:59;;;;;;;35.30;26.17;;;4.90;99.90;;;;;;5009510;27;20262;-94
2022/01/07 09:31:34;;;;;;;37.03;26.52;;;5.00;99.90;;;;;;4983197;27;20042;-92
2022/01/07 09:34:09;;;;;;;33.97;25.38;;;5.10;99.90;;;;;;5027132;27;20602;-95
2022/01/07 09:36:35;;;;;;;33.63;24.50;;;5.20;99.90;;;;;;5011334;27;20131;-89
2022/01/07 09:39:00;;;;;;;37.17;24.92;;;5.10;99.90;;;;;;4978047;27;20043;-86
2022/01/07 09:41:29;;;;;;;32.97;23.52;;;5.10;99.90;;;;;;5008464;27;20050;-89
2022/01/07 09:43:54;;;;;;;32.15;22.75;;;5.10;99.90;;;;;;4985954;28;20814;-90
2022/01/07 09:46:22;;;;;;;29.85;22.27;;;5.10;99.90;;;;;;4995939;27;20050;-86
2022/01/07 09:48:48;;;;;;;32.55;22.70;;;5.10;99.90;;;;;;5021917;27;20770;-90
2022/01/07 09:51:22;;;;;;;32.40;22.15;;;5.10;99.90;;;;;;5034072;27;20040;-96
2022/01/07 09:53:48;;;;;;;28.15;22.60;;;5.00;99.90;;;;;;5012052;27;20467;-89
2022/01/07 09:56:15;;;;;;;31.08;22.20;;;5.00;99.90;;;;;;4979395;27;20053;-92
2022/01/07 09:58:40;;;;;;;33.03;21.70;;;5.10;99.90;;;;;;5004664;27;20143;-88
2022/01/07 10:01:16;;;;;;;30.27;21.50;;;5.10;99.90;;;;;;5006719;27;20039;-92
2022/01/07 10:03:45;;;;;;;31.25;22.20;;;5.20;99.90;;;;;;5005431;27;20134;-92
2022/01/07 10:06:22;;;;;;;31.95;22.10;;;5.20;99.90;;;;;;5006210;27;20116;-93
2022/01/07 10:09:14;;;;;;;28.67;21.80;;;5.30;99.90;;;;;;5047113;27;20039;-90
2022/01/07 10:11:44;;;;;;;28.10;21.38;;;5.30;99.90;;;;;;5010663;27;20044;-91
2022/01/07 10:14:21;;;;;;;30.08;20.63;;;5.30;99.90;;;;;;5009136;27;20442;-90
2022/01/07 10:17:00;;;;;;;34.22;21.92;;;5.30;99.90;;;;;;5003017;27;20444;-90
2022/01/07 10:19:40;;;;;;;32.03;22.60;;;5.60;99.90;;;;;;5007125;27;20047;-93
2022/01/07 10:22:08;;;;;;;27.88;20.77;;;5.80;99.90;;;;;;5012439;27;20049;-91
2022/01/07 10:24:55;;;;;;;29.33;20.85;;;5.70;99.90;;;;;;5021678;27;20048;-90
2022/01/07 10:27:33;;;;;;;30.38;21.35;;;5.70;99.90;;;;;;5021968;27;20051;-96
2022/01/07 10:30:39;;;;;;;28.67;20.85;;;5.70;99.90;;;;;;5038236;28;20042;-94
2022/01/07 10:33:53;;;;;;;28.20;19.55;;;5.70;99.90;;;;;;5028792;27;20046;-93
2022/01/07 10:36:24;;;;;;;27.80;19.85;;;5.70;99.90;;;;;;4979069;28;20060;-91
2022/01/07 10:38:57;;;;;;;28.02;19.35;;;5.60;99.90;;;;;;5027243;27;20051;-91
2022/01/07 10:41:25;;;;;;;27.02;20.13;;;5.60;99.90;;;;;;5014944;27;20046;-93
2022/01/07 10:43:55;;;;;;;27.17;19.85;;;5.60;99.90;;;;;;5026060;27;20074;-90
2022/01/07 10:46:31;;;;;;;31.95;20.83;;;5.50;99.90;;;;;;5023940;27;20825;-87
2022/01/07 10:48:59;;;;;;;27.02;20.30;;;5.60;99.90;;;;;;5037325;28;20044;-93
2022/01/07 10:51:31;;;;;;;30.45;21.38;;;5.70;99.90;;;;;;5006646;27;20570;-89
2022/01/07 10:53:58;;;;;;;30.35;21.90;;;5.80;99.90;;;;;;5021128;27;20054;-88
2022/01/07 10:56:45;;;;;;;31.58;21.40;;;5.90;99.90;;;;;;5013020;27;20043;-96
2022/01/07 10:59:15;;;;;;;33.70;22.42;;;5.90;99.90;;;;;;5016968;27;20049;-94
2022/01/07 11:01:49;;;;;;;33.70;22.83;;;6.10;99.90;;;;;;5031123;27;20515;-96
2022/01/07 11:04:21;;;;;;;31.40;22.35;;;6.30;99.90;;;;;;5027218;27;20047;-93
2022/01/07 11:07:02;;;;;;;29.58;20.75;;;6.30;99.90;;;;;;5012086;28;20035;-92
2022/01/07 11:09:28;;;;;;;26.25;18.65;;;6.10;99.90;;;;;;5024790;27;20051;-95
2022/01/07 11:12:00;;;;;;;30.33;19.45;;;6.00;99.90;;;;;;5025397;28;20247;-96
2022/01/07 11:14:35;;;;;;;25.45;16.58;;;5.80;99.90;;;;;;5034224;28;20065;-91
2022/01/07 11:17:10;;;;;;;24.70;16.95;;;5.80;99.90;;;;;;5024052;27;20404;-92
2022/01/07 11:19:42;;;;;;;29.10;18.42;;;5.90;99.90;;;;;;5021171;28;20221;-95
2022/01/07 11:22:14;;;;;;;26.85;19.77;;;6.10;99.90;;;;;;5021851;28;20117;-90
2022/01/07 11:24:51;;;;;;;28.45;18.58;;;6.10;99.90;;;;;;5012894;28;20052;-93
2022/01/07 11:27:31;;;;;;;26.75;19.08;;;6.00;99.90;;;;;;5024469;28;20066;-93
2022/01/07 11:30:04;;;;;;;27.08;20.52;;;6.10;99.90;;;;;;5038785;28;20039;-94
2022/01/07 11:32:35;;;;;;;32.17;20.45;;;6.30;99.90;;;;;;5027864;28;20039;-93
2022/01/07 11:35:27;;;;;;;32.30;21.63;;;6.40;99.90;;;;;;5020228;28;20048;-92
2022/01/07 11:37:56;;;;;;;30.70;21.23;;;6.60;99.90;;;;;;5013128;28;20059;-91
2022/01/07 11:40:46;;;;;;;29.13;20.25;;;6.60;99.90;;;;;;5031038;28;20043;-94
2022/01/07 11:43:18;;;;;;;27.95;19.67;;;6.60;99.90;;;;;;5022405;27;20860;-90
2022/01/07 11:45:47;;;;;;;23.08;16.73;;;6.50;99.90;;;;;;5018131;27;20335;-88
2022/01/07 11:48:20;;;;;;;23.75;16.13;;;6.30;99.90;;;;;;5009027;27;20467;-92
2022/01/07 11:50:55;;;;;;;23.77;15.13;;;6.20;99.90;;;;;;5021690;27;20773;-92
2022/01/07 11:53:28;;;;;;;20.27;14.80;;;6.10;99.90;;;;;;5034907;27;20038;-90
2022/01/07 11:56:13;;;;;;;21.83;13.73;;;6.00;99.90;;;;;;5033372;27;20055;-91
2022/01/07 11:58:56;;;;;;;15.02;9.43;;;5.60;99.90;;;;;;5015796;27;20484;-92
2022/01/07 12:01:30;;;;;;;14.05;9.10;;;5.00;99.90;;;;;;5036865;27;20040;-92
2022/01/07 12:04:22;;;;;;;11.65;6.80;;;4.80;99.90;;;;;;5027511;27;20154;-96
2022/01/07 12:06:50;;;;;;;13.57;6.63;;;4.80;99.90;;;;;;5002842;27;20437;-90
2022/01/07 12:09:39;;;;;;;9.25;4.50;;;4.80;99.90;;;;;;5009554;27;20460;-93
2022/01/07 12:12:05;;;;;;;8.68;4.18;;;4.70;99.90;;;;;;5027037;27;20055;-93
2022/01/07 12:14:39;;;;;;;10.07;4.15;;;4.70;99.90;;;;;;5045976;27;20052;-91
2022/01/07 12:17:11;;;;;;;11.65;4.05;;;4.80;99.90;;;;;;5029312;27;20074;-87
2022/01/07 12:20:00;;;;;;;7.93;2.75;;;4.70;99.90;;;;;;5030756;27;20050;-94
2022/01/07 12:22:26;;;;;;;6.30;1.95;;;4.70;99.90;;;;;;5034126;27;20039;-94
2022/01/07 12:25:00;;;;;;;9.43;2.35;;;4.60;99.90;;;;;;5037598;27;20046;-93
2022/01/07 12:27:42;;;;;;;;;;;;;;;;;;;;;
2022/01/07 12:30:41;;;;;;;8.85;2.25;;;4.50;99.90;;;;;;5058989;27;19923;-96
2022/01/07 12:34:11;;;;;;;6.53;1.90;;;4.40;99.90;;;;;;5037184;27;20515;-96
2022/01/07 12:37:07;;;;;;;6.35;2.03;;;4.20;99.90;;;;;;4989317;27;20055;-96
2022/01/07 12:39:39;;;;;;;6.38;1.52;;;4.20;99.90;;;;;;5027778;27;20129;-93
2022/01/07 12:42:16;;;;;;;6.72;1.35;;;4.20;99.90;;;;;;5047601;28;20055;-95
2022/01/07 12:44:52;;;;;;;9.35;1.40;;;4.10;99.90;;;;;;5036494;27;20100;-96
2022/01/07 12:47:23;;;;;;;7.97;1.60;;;4.10;99.90;;;;;;5033206;27;20258;-92
2022/01/07 12:49:59;;;;;;;6.82;1.38;;;4.20;99.90;;;;;;5043047;27;20124;-92
2022/01/07 12:52:54;;;;;;;7.65;1.58;;;4.30;99.90;;;;;;5040699;27;20031;-96
2022/01/07 12:55:33;;;;;;;9.15;1.55;;;4.40;99.90;;;;;;5040293;27;20058;-96
2022/01/07 12:58:08;;;;;;;11.70;1.88;;;4.40;99.90;;;;;;5024765;27;20054;-93
2022/01/07 13:00:40;;;;;;;9.20;1.70;;;4.40;99.90;;;;;;5031005;27;20265;-96
2022/01/07 13:03:08;;;;;;;8.18;1.85;;;4.40;99.90;;;;;;5023808;27;20051;-91
2022/01/07 13:05:40;;;;;;;9.60;1.90;;;4.50;99.90;;;;;;5038569;27;20047;-93
2022/01/07 13:08:40;;;;;;;10.02;2.22;;;4.70;99.90;;;;;;5039837;27;20071;-96
2022/01/07 13:11:33;;;;;;;10.65;2.30;;;4.90;99.90;;;;;;5008968;27;20066;-96
2022/01/07 13:14:20;;;;;;;12.80;2.80;;;4.80;99.90;;;;;;5025925;27;20074;-93
2022/01/07 13:16:59;;;;;;;9.73;2.60;;;4.50;99.90;;;;;;5026468;27;20572;-95
2022/01/07 13:19:27;;;;;;;9.35;2.40;;;4.50;99.90;;;;;;5031390;27;20942;-92
2022/01/07 13:21:59;;;;;;;9.13;2.40;;;4.60;99.90;;;;;;5022872;27;20047;-93
2022/01/07 13:24:27;;;;;;;10.82;2.40;;;4.60;99.90;;;;;;5025947;27;20202;-91
2022/01/07 13:27:01;;;;;;;10.10;2.65;;;4.70;99.90;;;;;;5027851;27;20700;-94
2022/01/07 13:29:29;;;;;;;10.48;3.22;;;4.70;99.90;;;;;;5022065;27;20137;-92
2022/01/07 13:32:40;;;;;;;10.80;3.15;;;4.70;99.90;;;;;;5016409;27;20375;-93